Flight Track Log - Related Links

Times and Time Zones

All times are in EDT time to prevent confusion due to time zone crossing. See the UAL109 flight status page for this flight to view local times or setup timezone preferences in your user account.

Time Position Orientation Groundspeed Altitude Reporting Facility
EDT Latitude Longitude Course Direction KTS MPH feet Rate Location/Type
Sun 07:07:03 AM 55.9500 -3.3680 332° Northwest 10 12  Level FlightAware ADS-B
Sun 07:07:43 AM 55.9510 -3.3660 48° Northeast 13 15 132 Level FlightAware ADS-B
Sun 07:08:03 AM 55.9520 -3.3640 48° Northeast 13 15 145 Level FlightAware ADS-B
Sun 07:08:23 AM 55.9520 -3.3620 90° East 13 15 152 Level FlightAware ADS-B
Sun 07:11:00 AM 55.9864 -3.8675 276° West  Level FlightAware Approximate
Sun 07:11:38 AM 55.9570 -3.3560 276° West 8 9  Level FlightAware ADS-B
Sun 07:13:58 AM 55.9530 -3.3700 276° West 130 150 333 Level FlightAware ADS-B
Sun 07:14:00 AM 55.9835 -3.8194 276° West  Level FlightAware Approximate
Sun 07:14:08 AM 55.9490 -3.3800 234° Southwest 165 190  Level FlightAware ADS-B
Sun 07:14:38 AM 55.9370 -3.4170 234° Southwest 172 198 1,000 1,935 Climbing FlightAware ADS-B
Sun 07:14:39 AM 55.9334 -3.4200 234° Southwest 184 212 1,000 2,160 Level FlightAware UK
Sun 07:15:03 AM 55.9260 -3.4460 236° Southwest 178 205 1,900 2,111 Climbing FlightAware ADS-B
Sun 07:15:33 AM 55.9130 -3.4860 240° Southwest 190 219 2,900 1,700 Climbing FlightAware ADS-B
Sun 07:16:03 AM 55.9040 -3.5310 250° West 213 245 3,600 1,745 Climbing FlightAware ADS-B
Sun 07:16:28 AM 55.9000 -3.5760 261° West 229 264 4,500 2,143 Climbing FlightAware ADS-B
Sun 07:16:59 AM 55.8940 -3.6380 260° West 248 285 5,600 2,105 Climbing FlightAware ADS-B
Sun 07:17:25 AM 55.8850 -3.6870 252° West 264 304 6,500 2,571 Climbing FlightAware ADS-B
Sun 07:17:55 AM 55.8730 -3.7530 252° West 264 304 8,000 2,933 Climbing FlightAware ADS-B
Sun 07:18:10 AM 55.8670 -3.7830 250° West 266 306 8,700 2,550 Climbing FlightAware ADS-B
Sun 07:18:35 AM 55.8570 -3.8360 251° West 270 311 9,700 2,677 Climbing FlightAware ADS-B
Sun 07:19:15 AM 55.8420 -3.9160 252° West 268 308 11,600 1,835 Climbing FlightAware ADS-B
Sun 07:20:00 AM 55.8220 -4.0230 252° West 323 372 12,300 1,034 Climbing FlightAware ADS-B
Sun 07:20:42 AM 55.8010 -4.1320 251° West 360 414 13,100 1,655 Climbing FlightAware ADS-B
Sun 07:21:27 AM 55.7724 -4.2612 251° West 386 444 14,700 2,133 Climbing FlightAware UK
Sun 07:21:27 AM 55.7770 -4.2610 251° West 373 429 14,700 2,100 Level FlightAware ADS-B
Sun 07:22:07 AM 55.7540 -4.3790 251° West 382 440 16,100 2,118 Climbing FlightAware ADS-B
Sun 07:22:52 AM 55.7280 -4.5140 251° West 390 449 17,700 2,047 Climbing FlightAware ADS-B
Sun 07:23:32 AM 55.7040 -4.6360 251° West 396 456 19,000 2,000 Climbing FlightAware ADS-B
Sun 07:24:13 AM 55.6800 -4.7610 251° West 400 460 20,400 1,857 Climbing FlightAware ADS-B
Sun 07:24:56 AM 55.6530 -4.8960 251° West 408 470 21,600 1,735 Climbing FlightAware ADS-B
Sun 07:25:36 AM 55.6290 -5.0190 251° West 413 475 22,800 1,694 Climbing FlightAware ADS-B
Sun 07:26:21 AM 55.6000 -5.1620 250° West 421 484 24,000 1,482 Climbing FlightAware ADS-B
Sun 07:27:01 AM 55.5730 -5.2960 250° West 427 491 24,900 1,350 Climbing FlightAware ADS-B
Sun 07:27:41 AM 55.5460 -5.4300 250° West 433 498 25,800 1,259 Climbing FlightAware ADS-B
Sun 07:28:22 AM 55.5190 -5.5600 250° West 439 505 26,600 1,241 Climbing FlightAware ADS-B
Sun 07:29:08 AM 55.4870 -5.7150 250° West 442 509 27,600 1,229 Climbing FlightAware ADS-B
Sun 07:29:45 AM 55.4549 -5.8375 250° West 474 545 28,300 1,200 Climbing FlightAware UK
Sun 07:29:48 AM 55.4580 -5.8550 250° West 447 514 28,400 828 Climbing FlightAware ADS-B
Sun 07:30:43 AM 55.4280 -6.0000 250° West 452 520 29,100 1,053 Climbing FlightAware ADS-B
Sun 07:30:45 AM 55.4113 -6.0437 250° West 480 552 29,400 2,200 Climbing FlightAware UK
Sun 07:31:13 AM 55.3960 -6.1490 250° West 449 517 30,200 1,600 Climbing FlightAware ADS-B
Sun 07:31:15 AM 55.3895 -6.1468 250° West 476 548 30,200 1,317 Level FlightAware UK
Sun 07:31:54 AM 55.3670 -6.2890 250° West 446 513 31,100 1,286 Climbing FlightAware ADS-B
Sun 07:31:57 AM 55.3592 -6.2893 250° West 474 545 31,100 1,273 Level FlightAware UK
Sun 07:32:27 AM 55.3373 -6.3905 250° West 470 541 31,800 1,463 Climbing FlightAware UK
Sun 07:32:38 AM 55.3350 -6.4400 250° West 443 510 32,100 1,143 Climbing FlightAware ADS-B
Sun 07:33:09 AM 55.3069 -6.5312 250° West 468 539 32,600 878 Climbing FlightAware UK
Sun 07:33:19 AM 55.3060 -6.5720 250° West 444 511 32,700 982 Climbing FlightAware ADS-B
Sun 07:34:04 AM 55.2730 -6.7270 250° West 448 516 33,500 929 Climbing FlightAware ADS-B
Sun 07:34:43 AM 55.2430 -6.8610 250° West 448 516 34,000 732 Climbing FlightAware ADS-B
Sun 07:34:45 AM 55.2365 -6.8538 250° West 466 536 34,000  Level FlightAware UK
Sun 07:35:15 AM 55.2141 -6.9548 250° West 468 539 34,000  Level FlightAware UK
Sun 07:35:18 AM 55.2170 -6.9810 250° West 451 519 34,000  Level FlightAware ADS-B
Sun 07:35:53 AM 55.1910 -7.0960 248° West 450 518 34,000  Level FlightAware ADS-B
Sun 07:36:33 AM 55.1610 -7.2340 249° West 450 518 34,000  Level FlightAware ADS-B
Sun 07:37:13 AM 55.1310 -7.3680 249° West 449 517 34,000  Level FlightAware ADS-B
Sun 07:37:15 AM 55.1238 -7.3589 249° West 468 539 34,000  Level FlightAware UK
Sun 07:37:50 AM 55.0966 -7.4786 249° West 468 539 34,000  Level FlightAware UK
Sun 07:38:00 AM 55.0950 -7.5280 249° West 449 517 34,000  Level FlightAware ADS-B
Sun 07:38:40 AM 55.0640 -7.6630 248° West 448 516 34,000  Level FlightAware ADS-B
Sun 07:39:20 AM 55.0279 -7.7788 248° West 466 536 34,000  Level FlightAware UK
Sun 07:39:20 AM 55.0340 -7.7950 248° West 447 514 34,000  Level FlightAware ADS-B
Sun 07:39:50 AM 55.0049 -7.8785 248° West 466 536 34,000  Level FlightAware UK
Sun 07:40:05 AM 54.9990 -7.9470 248° West 445 512 34,000  Level FlightAware ADS-B
Sun 07:40:50 AM 54.9587 -8.0774 248° West 466 536 34,000  Level FlightAware UK
Sun 07:40:50 AM 54.9640 -8.0960 248° West 443 510 34,000  Level FlightAware ADS-B
Sun 07:41:20 AM 54.9354 -8.1764 248° West 466 536 34,000  Level FlightAware UK
Sun 07:41:30 AM 54.9340 -8.2270 248° West 442 509 34,000  Level FlightAware ADS-B
Sun 07:42:16 AM 54.8980 -8.3770 247° West 443 510 34,000  Level FlightAware ADS-B
Sun 07:42:50 AM 54.8656 -8.4725 247° West 464 534 34,000  Level FlightAware UK
Sun 07:42:56 AM 54.8660 -8.5130 247° West 443 510 34,000  Level FlightAware ADS-B
Sun 07:43:31 AM 54.8390 -8.6280 248° West 443 510 34,000  Level FlightAware ADS-B
Sun 07:44:11 AM 54.8070 -8.7600 247° West 443 510 34,000  Level FlightAware ADS-B
Sun 07:44:51 AM 54.7750 -8.8910 247° West 443 510 34,000  Level FlightAware ADS-B
Sun 07:44:56 AM 54.7665 -8.8852 247° West 464 534 34,000  Level FlightAware UK
Sun 07:45:26 AM 54.7428 -8.9835 247° West 464 534 34,000  Level FlightAware UK
Sun 07:45:41 AM 54.7360 -9.0560 247° West 444 511 34,000  Level FlightAware ADS-B
Sun 07:46:21 AM 54.7040 -9.1860 247° West 444 511 34,000  Level FlightAware ADS-B
Sun 07:47:06 AM 54.6670 -9.3350 247° West 448 516 34,000  Level FlightAware ADS-B
Sun 07:48:06 AM 54.6190 -9.5260 247° West 447 514 34,000  Level FlightAware ADS-B
Sun 07:48:41 AM 54.5910 -9.6380 247° West 442 509 34,000  Level FlightAware ADS-B
Sun 07:49:26 AM 54.5520 -9.7850 245° Southwest 442 509 34,000  Level FlightAware ADS-B
Sun 07:50:06 AM 54.5170 -9.9150 245° Southwest 440 506 34,000  Level FlightAware ADS-B
Sun 07:50:45 AM 54.4830 -10.0430 245° Southwest 440 506 34,000  Level FlightAware ADS-B
Sun 07:51:25 AM 54.4490 -10.1710 245° Southwest 439 505 34,000  Level FlightAware ADS-B
Sun 07:52:06 AM 54.4150 -10.2970 245° Southwest 438 504 34,000  Level FlightAware ADS-B
Sun 07:52:50 AM 54.3770 -10.4380 245° Southwest 438 504 34,000  Level FlightAware ADS-B
Sun 07:53:31 AM 54.3420 -10.5660 245° Southwest 438 504 34,000  Level FlightAware ADS-B
Sun 07:54:10 AM 54.3080 -10.6900 245° Southwest 438 504 34,000  Level FlightAware ADS-B
Sun 07:54:57 AM 54.2680 -10.8360 245° Southwest 438 504 34,000  Level FlightAware ADS-B
Sun 07:55:35 AM 54.2340 -10.9600 245° Southwest 438 504 34,000  Level FlightAware ADS-B
Sun 07:56:16 AM 54.1980 -11.0870 244° Southwest 438 504 34,000  Level FlightAware ADS-B
Sun 07:56:57 AM 54.1630 -11.2110 244° Southwest 442 509 34,000  Level FlightAware ADS-B
Sun 07:57:45 AM 54.1200 -11.3660 245° Southwest 443 510 34,000  Level FlightAware ADS-B
Sun 07:58:43 AM 54.0710 -11.5360 244° Southwest 443 510 34,000  Level FlightAware ADS-B
Sun 07:59:30 AM 54.0260 -11.6950 244° Southwest 442 509 34,000  Level FlightAware ADS-B
Sun 08:00:05 AM 53.9940 -11.8040 243° Southwest 443 510 34,000  Level FlightAware ADS-B
Sun 08:00:51 AM 53.9530 -11.9450 244° Southwest 442 509 34,000  Level FlightAware ADS-B
Sun 08:01:30 AM 53.9180 -12.0660 244° Southwest 443 510 34,000  Level FlightAware ADS-B
Sun 08:02:15 AM 53.8780 -12.2040 244° Southwest 443 510 34,000  Level FlightAware ADS-B
Sun 08:02:55 AM 53.8390 -12.3340 243° Southwest 440 506 34,000  Level FlightAware ADS-B
Sun 08:03:40 AM 53.7980 -12.4740 244° Southwest 441 507 34,000  Level FlightAware ADS-B
Sun 08:04:20 AM 53.7610 -12.5970 243° Southwest 442 509 34,000  Level FlightAware ADS-B
Sun 08:05:05 AM 53.7190 -12.7370 243° Southwest 441 507 34,000  Level FlightAware ADS-B
Sun 08:05:55 AM 53.6740 -12.8860 243° Southwest 441 507 34,000  Level FlightAware ADS-B
Sun 08:06:40 AM 53.6330 -13.0210 243° Southwest 441 507 34,000  Level FlightAware ADS-B
Sun 08:07:40 AM 53.5820 -13.1890 243° Southwest 440 506 34,000  Level FlightAware ADS-B
Sun 08:08:17 AM 53.5530 -13.2850 243° Southwest 440 506 34,000  Level FlightAware ADS-B
Sun 08:09:02 AM 53.4980 -13.4590 242° Southwest 439 505 34,000  Level FlightAware ADS-B
Sun 08:09:45 AM 53.4570 -13.5930 243° Southwest 438 504 34,000  Level FlightAware ADS-B
Sun 08:10:25 AM 53.4200 -13.7110 242° Southwest 437 503 34,000  Level FlightAware ADS-B
Sun 08:11:32 AM 53.3620 -13.8990 243° Southwest 437 503 34,000  Level FlightAware ADS-B
Sun 08:11:57 AM 53.3420 -13.9630 242° Southwest 437 503 34,000  Level FlightAware ADS-B
Sun 08:12:39 AM 53.3000 -14.0900 241° Southwest 441 507 34,000  Level FlightAware ADS-B
Sun 08:13:36 AM 53.2410 -14.2730 242° Southwest 443 510 34,000  Level FlightAware ADS-B
Sun 08:14:25 AM 53.1990 -14.3970 241° Southwest 443 510 34,000  Level FlightAware ADS-B
Sun 08:16:18 AM 53.1040 -14.6840 241° Southwest 443 510 34,000  Level FlightAware ADS-B
Sun 08:17:07 AM 53.0620 -14.8090 241° Southwest 443 510 34,000  Level FlightAware ADS-B
Sun 08:17:41 AM 53.0340 -14.8950 242° Southwest 443 510 34,000  Level FlightAware ADS-B
Sun 08:18:29 AM 52.9930 -15.0160 241° Southwest 443 510 34,000  Level FlightAware ADS-B
Sun 08:19:05 AM 52.9630 -15.1070 241° Southwest 443 510 34,000  Level FlightAware ADS-B
Sun 08:19:51 AM 52.9240 -15.2240 241° Southwest 443 510 34,000  Level FlightAware ADS-B
Sun 08:20:29 AM 52.8920 -15.3200 241° Southwest 443 510 34,000  Level FlightAware ADS-B
Sun 08:21:03 AM 52.8630 -15.4050 241° Southwest 443 510 34,000  Level FlightAware ADS-B
Sun 08:21:51 AM 52.8230 -15.5270 242° Southwest 443 510 34,000  Level FlightAware ADS-B
Sun 08:22:28 AM 52.7910 -15.6200 240° Southwest 443 510 34,000  Level FlightAware ADS-B
Sun 08:25:00 AM 52.8249 -16.0904 277° West  Level Estimated
Sun 08:26:00 AM 52.8377 -16.2763 277° West  Level Estimated
Sun 08:27:00 AM 52.8510 -16.4723 276° West  Level Estimated
Sun 08:28:00 AM 52.8639 -16.6684 276° West  Level Estimated
Sun 08:29:00 AM 52.8765 -16.8645 276° West  Level Estimated
Sun 08:30:00 AM 52.8887 -17.0608 276° West  Level Estimated
Sun 08:31:00 AM 52.9007 -17.2572 276° West  Level Estimated
Sun 08:32:00 AM 52.9123 -17.4537 276° West  Level Estimated
Sun 08:33:00 AM 52.9236 -17.6503 276° West  Level Estimated
Sun 08:34:00 AM 52.9345 -17.8470 275° West  Level Estimated
Sun 08:35:00 AM 52.9452 -18.0439 275° West  Level Estimated
Sun 08:36:00 AM 52.9555 -18.2408 275° West  Level Estimated
Sun 08:37:00 AM 52.9655 -18.4378 275° West  Level Estimated
Sun 08:38:00 AM 52.9751 -18.6349 275° West  Level Estimated
Sun 08:39:00 AM 52.9845 -18.8320 275° West  Level Estimated
Sun 08:40:00 AM 52.9935 -19.0293 274° West  Level Estimated
Sun 08:41:00 AM 53.0022 -19.2266 274° West  Level Estimated
Sun 08:42:00 AM 53.0105 -19.4241 274° West  Level Estimated
Sun 08:43:00 AM 53.0186 -19.6215 274° West  Level Estimated
Sun 08:43:00 AM 53.0000 -20.0000 274° West 432 497 34,000  Level ETMS Enhanced Traffic Management System
Sun 08:44:00 AM 53.0263 -19.8191 274° West  Level Estimated
Sun 08:45:00 AM 53.0336 -20.0168 274° West  Level Estimated
Sun 08:46:00 AM 53.0407 -20.2145 273° West  Level Estimated
Sun 08:47:00 AM 53.0474 -20.4122 273° West  Level Estimated
Sun 08:48:00 AM 53.0538 -20.6101 273° West  Level Estimated
Sun 08:49:00 AM 53.0505 -21.3972 273° West 432 497 34,000  Level FlightAware Transoceanic
Sun 08:50:00 AM 53.0564 -21.5970 273° West 432 497 34,000  Level FlightAware Transoceanic
Sun 08:51:00 AM 53.0619 -21.7969 273° West 432 497 34,000  Level FlightAware Transoceanic
Sun 08:52:00 AM 53.0671 -21.9969 272° West 432 497 34,000  Level FlightAware Transoceanic
Sun 08:53:00 AM 53.0720 -22.1969 272° West 432 497 34,000  Level FlightAware Transoceanic
Sun 08:54:00 AM 53.0765 -22.3969 272° West 432 497 34,000  Level FlightAware Transoceanic
Sun 08:55:00 AM 53.0807 -22.5970 272° West 432 497 34,000  Level FlightAware Transoceanic
Sun 08:56:00 AM 53.0846 -22.7971 272° West 432 497 34,000  Level FlightAware Transoceanic
Sun 08:57:00 AM 53.0881 -22.9973 272° West 432 497 34,000  Level FlightAware Transoceanic
Sun 08:58:00 AM 53.0913 -23.1975 271° West 432 497 34,000  Level FlightAware Transoceanic
Sun 08:59:00 AM 53.0942 -23.3977 271° West 432 497 34,000  Level FlightAware Transoceanic
Sun 09:00:00 AM 53.0967 -23.5979 271° West 432 497 34,000  Level FlightAware Transoceanic
Sun 09:01:00 AM 53.0989 -23.7982 271° West 432 497 34,000  Level FlightAware Transoceanic
Sun 09:02:00 AM 53.1007 -23.9984 271° West 432 497 34,000  Level FlightAware Transoceanic
Sun 09:03:00 AM 53.1022 -24.1987 271° West 432 497 34,000  Level FlightAware Transoceanic
Sun 09:04:00 AM 53.1034 -24.3990 270° West 432 497 34,000  Level FlightAware Transoceanic
Sun 09:05:00 AM 53.1043 -24.5993 270° West 432 497 34,000  Level FlightAware Transoceanic
Sun 09:06:00 AM 53.1048 -24.7997 270° West 432 497 34,000  Level FlightAware Transoceanic
Sun 09:07:00 AM 53.1049 -25.0000 270° West 432 497 34,000  Level FlightAware Transoceanic
Sun 09:08:00 AM 53.1048 -25.2003 270° West 432 497 34,000  Level FlightAware Transoceanic
Sun 09:09:00 AM 53.1043 -25.4007 270° West 432 497 34,000  Level FlightAware Transoceanic
Sun 09:10:00 AM 53.1034 -25.6010 270° West 432 497 34,000  Level FlightAware Transoceanic
Sun 09:11:00 AM 53.1022 -25.8013 269° West 432 497 34,000  Level FlightAware Transoceanic
Sun 09:12:00 AM 53.1007 -26.0016 269° West 432 497 34,000  Level FlightAware Transoceanic
Sun 09:13:00 AM 53.0989 -26.2018 269° West 432 497 34,000  Level FlightAware Transoceanic
Sun 09:14:00 AM 53.0967 -26.4021 269° West 432 497 34,000  Level FlightAware Transoceanic
Sun 09:15:00 AM 53.0942 -26.6023 269° West 432 497 34,000  Level FlightAware Transoceanic
Sun 09:16:00 AM 53.0913 -26.8025 269° West 432 497 34,000  Level FlightAware Transoceanic
Sun 09:17:00 AM 53.0881 -27.0027 268° West 432 497 34,000  Level FlightAware Transoceanic
Sun 09:18:00 AM 53.0846 -27.2029 268° West 432 497 34,000  Level FlightAware Transoceanic
Sun 09:19:00 AM 53.0807 -27.4030 268° West 432 497 34,000  Level FlightAware Transoceanic
Sun 09:20:00 AM 53.0765 -27.6031 268° West 432 497 34,000  Level FlightAware Transoceanic
Sun 09:21:00 AM 53.0720 -27.8031 268° West 432 497 34,000  Level FlightAware Transoceanic
Sun 09:22:00 AM 53.0671 -28.0031 268° West 432 497 34,000  Level FlightAware Transoceanic
Sun 09:23:00 AM 53.0619 -28.2031 267° West 432 497 34,000  Level FlightAware Transoceanic
Sun 09:24:00 AM 53.0564 -28.4030 267° West 432 497 34,000  Level FlightAware Transoceanic
Sun 09:25:00 AM 53.0505 -28.6028 267° West 432 497 34,000  Level FlightAware Transoceanic
Sun 09:26:00 AM 53.0443 -28.8026 267° West 432 497 34,000  Level FlightAware Transoceanic
Sun 09:27:00 AM 53.0377 -29.0023 267° West 432 497 34,000  Level FlightAware Transoceanic
Sun 09:28:00 AM 53.0309 -29.2020 267° West 432 497 34,000  Level FlightAware Transoceanic
Sun 09:29:00 AM 53.0237 -29.4016 266° West 432 497 34,000  Level FlightAware Transoceanic
Sun 09:30:00 AM 53.0161 -29.6012 266° West 432 497 34,000  Level FlightAware Transoceanic
Sun 09:31:00 AM 53.0082 -29.8006 266° West 432 497 34,000  Level FlightAware Transoceanic
Sun 09:32:00 AM 53.0001 -29.9980 266° West  Level FlightAware Approximate
Sun 09:33:00 AM 52.9919 -30.1954 266° West  Level FlightAware Approximate
Sun 09:34:00 AM 52.9888 -30.1930 265° West  Level FlightAware Approximate
Sun 09:35:00 AM 52.9770 -30.3899 264° West  Level FlightAware Approximate
Sun 09:36:00 AM 52.9649 -30.5866 264° West  Level FlightAware Approximate
Sun 09:37:00 AM 52.9524 -30.7832 264° West  Level FlightAware Approximate
Sun 09:38:00 AM 52.9397 -30.9797 264° West  Level FlightAware Approximate
Sun 09:39:00 AM 52.9266 -31.1761 264° West  Level FlightAware Approximate
Sun 09:40:00 AM 52.9132 -31.3723 264° West  Level FlightAware Approximate
Sun 09:41:00 AM 52.8994 -31.5685 263° West  Level FlightAware Approximate
Sun 09:42:00 AM 52.8854 -31.7645 263° West  Level FlightAware Approximate
Sun 09:43:00 AM 52.8710 -31.9604 263° West  Level FlightAware Approximate
Sun 09:44:00 AM 52.8563 -32.1561 263° West  Level FlightAware Approximate
Sun 09:45:00 AM 52.8413 -32.3517 263° West  Level FlightAware Approximate
Sun 09:46:00 AM 52.8260 -32.5472 263° West  Level FlightAware Approximate
Sun 09:47:00 AM 52.8103 -32.7425 263° West  Level FlightAware Approximate
Sun 09:48:00 AM 52.7943 -32.9377 262° West  Level FlightAware Approximate
Sun 09:49:00 AM 52.7780 -33.1328 262° West  Level FlightAware Approximate
Sun 09:50:00 AM 52.7614 -33.3277 262° West  Level FlightAware Approximate
Sun 09:51:00 AM 52.7444 -33.5224 262° West  Level FlightAware Approximate
Sun 09:52:00 AM 52.7272 -33.7170 262° West  Level FlightAware Approximate
Sun 09:53:00 AM 52.7096 -33.9115 262° West  Level FlightAware Approximate
Sun 09:54:00 AM 52.6917 -34.1058 261° West  Level FlightAware Approximate
Sun 09:55:00 AM 52.6735 -34.2999 261° West  Level FlightAware Approximate
Sun 09:56:00 AM 52.6550 -34.4939 261° West  Level FlightAware Approximate
Sun 09:57:00 AM 52.6361 -34.6877 261° West  Level FlightAware Approximate
Sun 09:58:00 AM 52.6170 -34.8813 261° West  Level FlightAware Approximate
Sun 09:59:00 AM 52.5975 -35.0747 261° West  Level FlightAware Approximate
Sun 10:00:00 AM 52.5782 -35.2682 261° West  Level FlightAware Approximate
Sun 10:01:00 AM 52.5586 -35.4614 261° West  Level FlightAware Approximate
Sun 10:02:00 AM 52.5386 -35.6545 260° West  Level FlightAware Approximate
Sun 10:03:00 AM 52.5183 -35.8474 260° West  Level FlightAware Approximate
Sun 10:04:00 AM 52.4977 -36.0401 260° West  Level FlightAware Approximate
Sun 10:05:00 AM 52.4768 -36.2326 260° West  Level FlightAware Approximate
Sun 10:06:00 AM 52.4556 -36.4249 260° West  Level FlightAware Approximate
Sun 10:07:00 AM 52.4341 -36.6171 260° West  Level FlightAware Approximate
Sun 10:08:00 AM 52.4123 -36.8091 260° West  Level FlightAware Approximate
Sun 10:09:00 AM 52.3901 -37.0009 259° West  Level FlightAware Approximate
Sun 10:10:00 AM 52.3677 -37.1924 259° West  Level FlightAware Approximate
Sun 10:11:00 AM 52.3449 -37.3838 259° West  Level FlightAware Approximate
Sun 10:12:00 AM 52.3218 -37.5750 259° West  Level FlightAware Approximate
Sun 10:13:00 AM 52.2985 -37.7660 259° West  Level FlightAware Approximate
Sun 10:14:00 AM 52.2748 -37.9568 259° West  Level FlightAware Approximate
Sun 10:15:00 AM 52.2508 -38.1474 258° West  Level FlightAware Approximate
Sun 10:16:00 AM 52.2265 -38.3377 258° West  Level FlightAware Approximate
Sun 10:17:00 AM 52.2019 -38.5279 258° West  Level FlightAware Approximate
Sun 10:18:00 AM 52.1769 -38.7178 258° West  Level FlightAware Approximate
Sun 10:19:00 AM 52.1517 -38.9076 258° West  Level FlightAware Approximate
Sun 10:20:00 AM 52.1262 -39.0971 258° West  Level FlightAware Approximate
Sun 10:21:00 AM 52.1004 -39.2864 258° West  Level FlightAware Approximate
Sun 10:22:00 AM 52.0742 -39.4755 257° West  Level FlightAware Approximate
Sun 10:23:00 AM 52.0478 -39.6643 257° West  Level FlightAware Approximate
Sun 10:24:00 AM 52.0211 -39.8530 257° West  Level FlightAware Approximate
Sun 10:25:00 AM 51.9938 -40.0413 256° West  Level FlightAware Approximate
Sun 10:26:00 AM 51.9653 -40.2290 256° West  Level FlightAware Approximate
Sun 10:27:00 AM 51.9365 -40.4165 256° West  Level FlightAware Approximate
Sun 10:28:00 AM 51.9074 -40.6037 256° West  Level FlightAware Approximate
Sun 10:29:00 AM 51.8780 -40.7907 256° West  Level FlightAware Approximate
Sun 10:30:00 AM 51.8483 -40.9775 256° West  Level FlightAware Approximate
Sun 10:31:00 AM 51.8183 -41.1640 255° West  Level FlightAware Approximate
Sun 10:32:00 AM 51.7880 -41.3502 255° West  Level FlightAware Approximate
Sun 10:33:00 AM 51.7574 -41.5362 255° West  Level FlightAware Approximate
Sun 10:34:00 AM 51.7266 -41.7220 255° West  Level FlightAware Approximate
Sun 10:35:00 AM 51.6954 -41.9075 255° West  Level FlightAware Approximate
Sun 10:36:00 AM 51.6639 -42.0927 255° West  Level FlightAware Approximate
Sun 10:37:00 AM 51.6322 -42.2777 255° West  Level FlightAware Approximate
Sun 10:38:00 AM 51.6001 -42.4624 254° West  Level FlightAware Approximate
Sun 10:39:00 AM 51.5678 -42.6469 254° West  Level FlightAware Approximate
Sun 10:40:00 AM 51.5352 -42.8311 254° West  Level FlightAware Approximate
Sun 10:41:00 AM 51.5023 -43.0150 254° West  Level FlightAware Approximate
Sun 10:42:00 AM 51.4691 -43.1987 254° West  Level FlightAware Approximate
Sun 10:43:00 AM 51.4356 -43.3820 254° West  Level FlightAware Approximate
Sun 10:44:00 AM 51.4019 -43.5652 254° West  Level FlightAware Approximate
Sun 10:45:00 AM 51.3678 -43.7480 253° West  Level FlightAware Approximate
Sun 10:46:00 AM 51.3335 -43.9306 253° West  Level FlightAware Approximate
Sun 10:47:00 AM 51.2989 -44.1129 253° West  Level FlightAware Approximate
Sun 10:48:00 AM 51.2640 -44.2949 253° West  Level FlightAware Approximate
Sun 10:49:00 AM 51.2288 -44.4767 253° West  Level FlightAware Approximate
Sun 10:50:00 AM 51.1933 -44.6581 253° West  Level FlightAware Approximate
Sun 10:51:00 AM 51.1576 -44.8393 253° West  Level FlightAware Approximate
Sun 10:52:00 AM 51.1216 -45.0202 252° West  Level FlightAware Approximate
Sun 10:53:00 AM 51.0853 -45.2009 252° West  Level FlightAware Approximate
Sun 10:54:00 AM 51.0487 -45.3812 252° West  Level FlightAware Approximate
Sun 10:55:00 AM 51.0118 -45.5613 252° West  Level FlightAware Approximate
Sun 10:56:00 AM 50.9747 -45.7410 252° West  Level FlightAware Approximate
Sun 10:57:00 AM 50.9373 -45.9205 252° West  Level FlightAware Approximate
Sun 10:58:00 AM 50.8996 -46.0997 252° West  Level FlightAware Approximate
Sun 10:59:00 AM 50.8617 -46.2786 251° West  Level FlightAware Approximate
Sun 11:00:00 AM 50.8235 -46.4573 251° West  Level FlightAware Approximate
Sun 11:01:00 AM 50.7850 -46.6356 251° West  Level FlightAware Approximate
Sun 11:02:00 AM 50.7463 -46.8137 251° West  Level FlightAware Approximate
Sun 11:03:00 AM 50.7074 -46.9914 251° West  Level FlightAware Approximate
Sun 11:04:00 AM 50.6681 -47.1689 251° West  Level FlightAware Approximate
Sun 11:05:00 AM 50.6286 -47.3461 251° West  Level FlightAware Approximate
Sun 11:06:00 AM 50.5888 -47.5229 251° West  Level FlightAware Approximate
Sun 11:07:00 AM 50.5488 -47.6995 250° West  Level FlightAware Approximate
Sun 11:08:00 AM 50.5084 -47.8758 250° West  Level FlightAware Approximate
Sun 11:09:00 AM 50.4678 -48.0517 250° West  Level FlightAware Approximate
Sun 11:10:00 AM 50.4270 -48.2274 250° West  Level FlightAware Approximate
Sun 11:11:00 AM 50.3859 -48.4028 250° West  Level FlightAware Approximate
Sun 11:12:00 AM 50.3445 -48.5778 250° West  Level FlightAware Approximate
Sun 11:13:00 AM 50.3028 -48.7526 250° West  Level FlightAware Approximate
Sun 11:14:00 AM 50.2609 -48.9270 249° West  Level FlightAware Approximate
Sun 11:15:00 AM 50.2188 -49.1011 249° West  Level FlightAware Approximate
Sun 11:16:00 AM 50.1764 -49.2750 249° West  Level FlightAware Approximate
Sun 11:16:24 AM 49.9833 -49.8833 251° West 450 518 34,000  Level Gander Center
Sun 11:17:00 AM 50.1337 -49.4485 249° West  Level FlightAware Approximate
Sun 11:17:24 AM 49.9500 -50.0833 256° West 460 529 34,000  Level Gander Center
Sun 11:18:00 AM 50.0908 -49.6217 249° West  Level FlightAware Approximate
Sun 11:19:00 AM 50.0482 -49.7921 249° West  Level FlightAware Approximate
Sun 11:20:00 AM 50.0053 -49.9622 249° West  Level FlightAware Approximate
Sun 11:21:00 AM 49.9698 -50.1354 251° West  Level FlightAware Approximate
Sun 11:22:37 AM 49.7080 -51.0930 256° West 451 519 34,000  Level FlightAware ADS-B
Sun 11:23:17 AM 49.6740 -51.2180 247° West 451 519 34,000  Level FlightAware ADS-B
Sun 11:24:02 AM 49.6370 -51.3530 247° West 450 518 34,000  Level FlightAware ADS-B
Sun 11:24:47 AM 49.5990 -51.4840 246° West 449 517 34,000  Level FlightAware ADS-B
Sun 11:25:37 AM 49.5520 -51.6130 241° Southwest 447 514 34,000  Level FlightAware ADS-B
Sun 11:26:22 AM 49.5100 -51.7470 244° Southwest 445 512 34,000  Level FlightAware ADS-B
Sun 11:26:57 AM 49.4810 -51.8480 246° West 445 512 34,000  Level FlightAware ADS-B
Sun 11:27:37 AM 49.4480 -51.9650 247° West 446 513 34,000  Level FlightAware ADS-B
Sun 11:28:22 AM 49.4110 -52.0930 246° West 446 513 34,000  Level FlightAware ADS-B
Sun 11:29:07 AM 49.3740 -52.2230 246° West 448 516 34,000  Level FlightAware ADS-B
Sun 11:29:47 AM 49.3380 -52.3450 246° West 449 517 34,000 150 Level FlightAware ADS-B
Sun 11:30:27 AM 49.3050 -52.4590 246° West 449 517 34,200 1,050 Climbing FlightAware ADS-B
Sun 11:31:07 AM 49.2710 -52.5760 246° West 439 505 35,400 1,271 Climbing FlightAware ADS-B
Sun 11:31:52 AM 49.2350 -52.6970 246° West 431 496 36,000 507 Climbing FlightAware ADS-B
Sun 11:32:18 AM 49.2130 -52.7710 246° West 432 497 36,000  Level FlightAware ADS-B
Sun 11:33:02 AM 49.1780 -52.8900 246° West 435 501 36,000  Level FlightAware ADS-B
Sun 11:33:37 AM 49.1490 -52.9890 246° West 437 503 36,000  Level FlightAware ADS-B
Sun 11:34:19 AM 49.1140 -53.1060 245° Southwest 439 505 36,000  Level FlightAware ADS-B
Sun 11:35:02 AM 49.0770 -53.2270 245° Southwest 440 506 36,000  Level FlightAware ADS-B
Sun 11:35:42 AM 49.0420 -53.3450 246° West 441 507 36,000  Level FlightAware ADS-B
Sun 11:36:19 AM 49.0120 -53.4430 245° Southwest 441 507 36,000  Level FlightAware ADS-B
Sun 11:36:57 AM 48.9780 -53.5560 245° Southwest 441 507 36,000  Level FlightAware ADS-B
Sun 11:37:37 AM 48.9440 -53.6690 245° Southwest 440 506 36,000  Level FlightAware ADS-B
Sun 11:38:22 AM 48.9060 -53.7930 245° Southwest 440 506 36,000  Level FlightAware ADS-B
Sun 11:39:02 AM 48.8710 -53.9060 245° Southwest 439 505 36,000  Level FlightAware ADS-B
Sun 11:39:37 AM 48.8410 -54.0040 245° Southwest 437 503 36,000  Level FlightAware ADS-B
Sun 11:40:27 AM 48.7990 -54.1410 245° Southwest 436 502 36,000  Level FlightAware ADS-B
Sun 11:40:57 AM 48.7730 -54.2240 245° Southwest 435 501 36,000  Level FlightAware ADS-B
Sun 11:41:37 AM 48.7380 -54.3350 244° Southwest 434 499 36,000  Level FlightAware ADS-B
Sun 11:42:22 AM 48.7000 -54.4580 245° Southwest 433 498 36,000  Level FlightAware ADS-B
Sun 11:43:02 AM 48.6660 -54.5650 244° Southwest 433 498 36,000  Level FlightAware ADS-B
Sun 11:43:42 AM 48.6310 -54.6750 244° Southwest 431 496 36,000  Level FlightAware ADS-B
Sun 11:44:27 AM 48.5930 -54.7970 245° Southwest 430 495 36,000  Level FlightAware ADS-B
Sun 11:45:12 AM 48.5540 -54.9180 244° Southwest 428 493 36,000  Level FlightAware ADS-B
Sun 11:45:53 AM 48.5210 -55.0210 244° Southwest 427 491 36,000  Level FlightAware ADS-B
Sun 11:46:32 AM 48.4860 -55.1310 244° Southwest 425 489 36,000  Level FlightAware ADS-B
Sun 11:47:12 AM 48.4510 -55.2380 244° Southwest 423 487 36,000  Level FlightAware ADS-B
Sun 11:47:57 AM 48.4130 -55.3560 244° Southwest 423 487 36,000  Level FlightAware ADS-B
Sun 11:48:42 AM 48.3740 -55.4750 244° Southwest 422 486 36,000  Level FlightAware ADS-B
Sun 11:49:32 AM 48.3310 -55.6050 244° Southwest 421 484 36,000  Level FlightAware ADS-B
Sun 11:50:12 AM 48.2970 -55.7100 244° Southwest 420 483 36,000  Level FlightAware ADS-B
Sun 11:50:52 AM 48.2620 -55.8140 243° Southwest 419 482 36,000  Level FlightAware ADS-B
Sun 11:51:27 AM 48.2320 -55.9050 244° Southwest 419 482 36,000  Level FlightAware ADS-B
Sun 11:52:07 AM 48.1970 -56.0100 243° Southwest 420 483 36,000  Level FlightAware ADS-B
Sun 11:52:47 AM 48.1620 -56.1140 243° Southwest 420 483 36,000  Level FlightAware ADS-B
Sun 11:53:32 AM 48.1230 -56.2300 243° Southwest 418 481 36,000  Level FlightAware ADS-B
Sun 11:54:02 AM 48.0970 -56.3070 243° Southwest 418 481 36,000  Level FlightAware ADS-B
Sun 11:54:47 AM 48.0580 -56.4220 243° Southwest 418 481 36,000  Level FlightAware ADS-B
Sun 11:55:27 AM 48.0220 -56.5250 242° Southwest 418 481 36,000  Level FlightAware ADS-B
Sun 11:55:57 AM 47.9970 -56.6010 244° Southwest 418 481 36,000  Level FlightAware ADS-B
Sun 11:56:27 AM 47.9700 -56.6770 242° Southwest 417 480 36,000  Level FlightAware ADS-B
Sun 11:57:07 AM 47.9370 -56.7750 243° Southwest 417 480 36,000  Level FlightAware ADS-B
Sun 11:57:48 AM 47.8980 -56.8850 242° Southwest 417 480 36,000  Level FlightAware ADS-B
Sun 11:58:36 AM 47.8560 -57.0080 243° Southwest 417 480 36,000  Level FlightAware ADS-B
Sun 11:59:04 AM 47.8310 -57.0780 242° Southwest 417 480 36,000  Level FlightAware ADS-B
Sun 12:00:07 PM 47.7760 -57.2330 242° Southwest 416 479 36,000  Level FlightAware ADS-B
Sun 12:00:47 PM 47.7390 -57.3370 242° Southwest 416 479 36,000  Level FlightAware ADS-B
Sun 12:01:28 PM 47.7050 -57.4330 242° Southwest 417 480 36,000  Level FlightAware ADS-B
Sun 12:02:08 PM 47.6680 -57.5350 242° Southwest 417 480 36,000  Level FlightAware ADS-B
Sun 12:03:08 PM 47.6150 -57.6820 242° Southwest 418 481 36,000  Level FlightAware ADS-B
Sun 12:03:52 PM 47.5710 -57.8040 242° Southwest 418 481 36,000 67 Level FlightAware ADS-B
Sun 12:04:37 PM 47.5300 -57.9190 242° Southwest 419 482 36,100 713 Climbing FlightAware ADS-B
Sun 12:05:33 PM 47.4790 -58.0570 241° Southwest 421 484 37,200 818 Climbing FlightAware ADS-B
Sun 12:06:27 PM 47.4340 -58.1760 241° Southwest 421 484 37,600 485 Climbing FlightAware ADS-B
Sun 12:07:12 PM 47.3880 -58.3020 242° Southwest 420 483 38,000 231 Climbing FlightAware ADS-B
Sun 12:08:11 PM 47.3310 -58.4550 241° Southwest 420 483 38,000  Level FlightAware ADS-B
Sun 12:08:47 PM 47.2970 -58.5440 241° Southwest 420 483 38,000  Level FlightAware ADS-B
Sun 12:09:33 PM 47.2530 -58.6610 241° Southwest 421 484 38,000  Level FlightAware ADS-B
Sun 12:10:17 PM 47.2120 -58.7690 241° Southwest 420 483 38,000  Level FlightAware ADS-B
Sun 12:10:55 PM 47.1760 -58.8650 241° Southwest 420 483 38,000  Level FlightAware ADS-B
Sun 12:11:58 PM 47.1170 -59.0170 240° Southwest 420 483 38,000  Level FlightAware ADS-B
Sun 12:12:27 PM 47.0870 -59.0950 241° Southwest 420 483 38,000  Level FlightAware ADS-B
Sun 12:13:07 PM 47.0490 -59.1940 241° Southwest 420 483 38,000  Level FlightAware ADS-B
Sun 12:13:51 PM 47.0080 -59.3000 240° Southwest 420 483 38,000  Level FlightAware ADS-B
Sun 12:14:29 PM 46.9710 -59.3950 240° Southwest 420 483 38,000  Level FlightAware ADS-B
Sun 12:14:53 PM 46.9470 -59.4550 240° Southwest 419 482 38,000  Level FlightAware ADS-B
Sun 12:18:20 PM 46.7630 -59.9200 240° Southwest 421 484 38,000  Level FlightAware ADS-B
Sun 12:19:38 PM 46.6840 -60.1170 240° Southwest 419 482 38,000  Level FlightAware ADS-B
Sun 12:20:27 PM 46.6230 -60.2670 239° Southwest 419 482 38,000  Level FlightAware ADS-B
Sun 12:21:06 PM 46.5840 -60.3630 239° Southwest 419 482 38,000  Level FlightAware ADS-B
Sun 12:21:52 PM 46.5380 -60.4750 239° Southwest 421 484 38,000  Level FlightAware ADS-B
Sun 12:22:31 PM 46.5000 -60.5680 239° Southwest 422 486 38,000  Level FlightAware ADS-B
Sun 12:23:12 PM 46.4590 -60.6680 239° Southwest 421 484 38,000  Level FlightAware ADS-B
Sun 12:23:56 PM 46.4140 -60.7760 239° Southwest 422 486 38,000  Level FlightAware ADS-B
Sun 12:24:38 PM 46.3720 -60.8780 239° Southwest 422 486 38,000  Level FlightAware ADS-B
Sun 12:25:16 PM 46.3350 -60.9680 239° Southwest 421 484 38,000  Level FlightAware ADS-B
Sun 12:26:04 PM 46.2860 -61.0840 239° Southwest 421 484 38,000  Level FlightAware ADS-B
Sun 12:26:44 PM 46.2450 -61.1810 239° Southwest 421 484 38,000  Level FlightAware ADS-B
Sun 12:27:28 PM 46.2010 -61.2860 239° Southwest 423 487 38,000  Level FlightAware ADS-B
Sun 12:28:08 PM 46.1600 -61.3820 238° Southwest 422 486 38,000  Level FlightAware ADS-B
Sun 12:28:46 PM 46.1210 -61.4740 239° Southwest 423 487 38,000  Level FlightAware ADS-B
Sun 12:29:32 PM 46.0750 -61.5820 238° Southwest 424 488 38,000  Level FlightAware ADS-B
Sun 12:30:12 PM 46.0340 -61.6790 239° Southwest 426 490 38,000  Level FlightAware ADS-B
Sun 12:30:52 PM 45.9990 -61.7610 238° Southwest 426 490 38,000  Level FlightAware ADS-B
Sun 12:31:39 PM 45.9570 -61.8570 238° Southwest 426 490 38,000  Level FlightAware ADS-B
Sun 12:32:35 PM 45.8920 -62.0080 238° Southwest 427 491 38,000  Level FlightAware ADS-B
Sun 12:33:12 PM 45.8600 -62.0840 239° Southwest 427 491 38,000  Level FlightAware ADS-B
Sun 12:33:58 PM 45.8190 -62.1780 238° Southwest 427 491 38,000  Level FlightAware ADS-B
Sun 12:34:35 PM 45.7860 -62.2530 238° Southwest 427 491 38,000  Level FlightAware ADS-B
Sun 12:35:23 PM 45.7430 -62.3510 238° Southwest 427 491 38,000  Level FlightAware ADS-B
Sun 12:35:57 PM 45.7130 -62.4200 238° Southwest 427 491 38,000  Level FlightAware ADS-B
Sun 12:36:59 PM 45.6570 -62.5470 238° Southwest 427 491 38,000  Level FlightAware ADS-B
Sun 12:37:57 PM 45.6060 -62.6650 238° Southwest 427 491 38,000  Level FlightAware ADS-B
Sun 12:38:24 PM 45.5820 -62.7200 238° Southwest 427 491 38,000  Level FlightAware ADS-B
Sun 12:39:13 PM 45.5380 -62.8200 238° Southwest 427 491 38,000  Level FlightAware ADS-B
Sun 12:40:36 PM 45.3760 -63.1800 237° Southwest 435 501 38,000  Level FlightAware ADS-B
Sun 12:41:16 PM 45.3330 -63.2780 238° Southwest 435 501 38,000  Level FlightAware ADS-B
Sun 12:42:01 PM 45.2850 -63.3830 237° Southwest 436 502 38,000  Level FlightAware ADS-B
Sun 12:42:31 PM 45.2520 -63.4560 237° Southwest 436 502 38,000  Level FlightAware ADS-B
Sun 12:43:16 PM 45.2030 -63.5640 237° Southwest 436 502 38,000  Level FlightAware ADS-B
Sun 12:43:41 PM 45.1770 -63.6230 238° Southwest 436 502 38,000  Level FlightAware ADS-B
Sun 12:44:26 PM 45.1280 -63.7310 237° Southwest 434 499 38,000  Level FlightAware ADS-B
Sun 12:45:11 PM 45.0800 -63.8350 237° Southwest 435 501 38,000  Level FlightAware ADS-B
Sun 12:45:47 PM 45.0420 -63.9190 237° Southwest 435 501 38,000  Level FlightAware ADS-B
Sun 12:46:33 PM 44.9890 -64.0350 237° Southwest 436 502 38,000  Level FlightAware ADS-B
Sun 12:46:59 PM 44.9600 -64.0980 237° Southwest 436 502 38,000  Level FlightAware ADS-B
Sun 12:47:45 PM 44.9090 -64.2080 237° Southwest 436 502 38,000  Level FlightAware ADS-B
Sun 12:48:29 PM 44.8600 -64.3140 237° Southwest 436 502 38,000  Level FlightAware ADS-B
Sun 12:49:11 PM 44.8150 -64.4130 237° Southwest 436 502 38,000  Level FlightAware ADS-B
Sun 12:49:47 PM 44.7750 -64.4980 236° Southwest 434 499 38,000  Level FlightAware ADS-B
Sun 12:50:15 PM 44.7440 -64.5660 237° Southwest 433 498 38,000  Level FlightAware ADS-B
Sun 12:51:00 PM 44.6950 -64.6690 236° Southwest 431 496 38,000  Level FlightAware ADS-B
Sun 12:51:29 PM 44.6630 -64.7380 237° Southwest 430 495 38,000  Level FlightAware ADS-B
Sun 12:52:13 PM 44.6160 -64.8380 237° Southwest 429 494 38,000  Level FlightAware ADS-B
Sun 12:52:51 PM 44.5740 -64.9290 237° Southwest 428 493 38,000  Level FlightAware ADS-B
Sun 12:53:37 PM 44.5240 -65.0340 236° Southwest 427 491 38,000  Level FlightAware ADS-B
Sun 12:54:17 PM 44.4800 -65.1280 237° Southwest 426 490 38,000  Level FlightAware ADS-B
Sun 12:55:00 PM 44.4340 -65.2240 236° Southwest 426 490 38,000  Level FlightAware ADS-B
Sun 12:55:35 PM 44.3960 -65.3050 237° Southwest 425 489 38,000  Level FlightAware ADS-B
Sun 12:56:15 PM 44.3520 -65.3970 236° Southwest 424 488 38,000  Level FlightAware ADS-B
Sun 12:57:00 PM 44.3040 -65.4980 236° Southwest 426 490 38,000  Level FlightAware ADS-B
Sun 12:57:40 PM 44.2600 -65.5910 237° Southwest 426 490 38,000  Level FlightAware ADS-B
Sun 12:58:42 PM 44.1920 -65.7320 236° Southwest 425 489 38,000  Level FlightAware ADS-B
Sun 12:59:40 PM 44.1290 -65.8630 236° Southwest 426 490 38,000  Level FlightAware ADS-B
Sun 01:00:20 PM 44.0840 -65.9560 236° Southwest 426 490 38,000  Level FlightAware ADS-B
Sun 01:01:03 PM 44.0430 -66.0410 236° Southwest 426 490 38,000  Level FlightAware ADS-B
Sun 01:01:43 PM 44.0060 -66.1180 236° Southwest 426 490 38,000  Level FlightAware ADS-B
Sun 01:02:31 PM 43.9610 -66.2110 236° Southwest 426 490 38,000  Level FlightAware ADS-B
Sun 01:03:07 PM 43.9270 -66.2800 236° Southwest 426 490 38,000  Level FlightAware ADS-B
Sun 01:03:55 PM 43.8820 -66.3720 236° Southwest 426 490 38,000  Level FlightAware ADS-B
Sun 01:04:31 PM 43.8480 -66.4420 236° Southwest 426 490 38,000  Level FlightAware ADS-B
Sun 01:05:31 PM 43.7920 -66.5570 236° Southwest 426 490 38,000  Level FlightAware ADS-B
Sun 01:06:07 PM 43.7580 -66.6270 236° Southwest 426 490 38,000  Level FlightAware ADS-B
Sun 01:06:43 PM 43.7250 -66.6960 237° Southwest 426 490 38,000  Level FlightAware ADS-B
Sun 01:07:31 PM 43.6800 -66.7880 236° Southwest 426 490 38,000  Level FlightAware ADS-B
Sun 01:08:08 PM 43.6450 -66.8590 236° Southwest 426 490 38,000  Level FlightAware ADS-B
Sun 01:08:56 PM 43.6000 -66.9510 236° Southwest 426 490 38,000  Level FlightAware ADS-B
Sun 01:09:33 PM 43.5650 -67.0220 236° Southwest 426 490 38,000  Level FlightAware ADS-B
Sun 01:10:10 PM 43.5310 -67.0930 237° Southwest 426 490 38,000  Level FlightAware ADS-B
Sun 01:11:35 PM 43.4000 -67.5000 237° Southwest 410 472 38,000  Level Moncton Center
Sun 01:12:05 PM 43.4122 -67.5344 296° West 418 481 38,000  Level Boston Center
Sun 01:17:44 PM 43.1720 -68.4190 296° West 419 482 38,000  Level FlightAware ADS-B
Sun 01:18:25 PM 43.1380 -68.5360 248° West 419 482 38,000  Level FlightAware ADS-B
Sun 01:19:05 PM 43.1080 -68.6360 248° West 421 484 38,000  Level FlightAware ADS-B
Sun 01:19:50 PM 43.0770 -68.7440 249° West 422 486 38,000  Level FlightAware ADS-B
Sun 01:20:30 PM 43.0460 -68.8480 248° West 425 489 38,000  Level FlightAware ADS-B
Sun 01:21:25 PM 43.0080 -68.9760 248° West 427 491 38,000  Level FlightAware ADS-B
Sun 01:22:05 PM 42.9770 -69.0820 248° West 429 494 38,000  Level FlightAware ADS-B
Sun 01:22:45 PM 42.9450 -69.1870 247° West 429 494 38,000 -525 Level FlightAware ADS-B
Sun 01:23:25 PM 42.9160 -69.2860 248° West 430 495 37,300 -1,800 Descending FlightAware ADS-B
Sun 01:24:05 PM 42.8850 -69.3880 248° West 434 499 35,600 -2,541 Descending FlightAware ADS-B
Sun 01:24:50 PM 42.8500 -69.5020 247° West 436 502 33,700 -2,824 Descending FlightAware ADS-B
Sun 01:25:30 PM 42.8200 -69.6030 248° West 445 512 31,600 -3,279 Descending FlightAware ADS-B
Sun 01:26:16 PM 42.7820 -69.7260 247° West 459 528 29,000 -2,512 Descending FlightAware ADS-B
Sun 01:26:56 PM 42.7500 -69.8300 247° West 458 527 28,000 -800 Descending FlightAware ADS-B
Sun 01:27:31 PM 42.7210 -69.9240 247° West 457 526 28,000  Level FlightAware ADS-B
Sun 01:28:13 PM 42.6880 -70.0300 247° West 466 536 28,000  Level FlightAware ADS-B
Sun 01:28:56 PM 42.6490 -70.1520 247° West 460 529 28,000  Level FlightAware ADS-B
Sun 01:29:41 PM 42.6120 -70.2710 247° West 459 528 28,000  Level FlightAware ADS-B
Sun 01:29:52 PM 42.6030 -70.2980 246° West 458 527 28,000  Level FlightAware ADS-B
Sun 01:31:41 PM 42.5110 -70.5870 247° West 455 524 28,000  Level FlightAware ADS-B
Sun 01:32:26 PM 42.4720 -70.7050 246° West 454 522 28,000  Level FlightAware ADS-B
Sun 01:33:01 PM 42.4440 -70.7930 247° West 454 522 28,000  Level FlightAware ADS-B
Sun 01:33:41 PM 42.4080 -70.9020 246° West 454 522 28,000 -450 Level FlightAware ADS-B
Sun 01:34:21 PM 42.3740 -71.0080 247° West 462 532 27,400 -907 Descending FlightAware ADS-B
Sun 01:35:07 PM 42.3430 -71.1280 251° West 449 517 26,700 -975 Descending FlightAware ADS-B
Sun 01:35:41 PM 42.3200 -71.2230 252° West 448 516 26,100 -1,063 Descending FlightAware ADS-B
Sun 01:36:26 PM 42.2920 -71.3430 253° West 450 518 25,300 -1,050 Descending FlightAware ADS-B
Sun 01:37:01 PM 42.2740 -71.4430 256° West 442 509 24,700 -963 Descending FlightAware ADS-B
Sun 01:37:47 PM 42.2600 -71.5620 261° West 435 501 24,000 -585 Descending FlightAware ADS-B
Sun 01:38:23 PM 42.2510 -71.6620 263° West 434 499 23,900 -553 Descending FlightAware ADS-B
Sun 01:39:03 PM 42.2440 -71.7640 265° West 428 493 23,300 -951 Descending FlightAware ADS-B
Sun 01:39:45 PM 42.2370 -71.8600 264° West 420 483 22,600 -1,024 Descending FlightAware ADS-B
Sun 01:40:25 PM 42.2290 -71.9770 265° West 418 481 21,900 -1,012 Descending FlightAware ADS-B
Sun 01:41:08 PM 42.2200 -72.0930 264° West 415 478 21,200 -955 Descending FlightAware ADS-B
Sun 01:41:53 PM 42.2120 -72.2060 265° West 408 470 20,500 -987 Descending FlightAware ADS-B
Sun 01:42:27 PM 42.2050 -72.2930 264° West 404 465 19,900 -1,692 Descending FlightAware ADS-B
Sun 01:43:11 PM 42.1960 -72.4030 264° West 393 452 18,300 -2,444 Descending FlightAware ADS-B
Sun 01:43:48 PM 42.1890 -72.4900 264° West 390 449 16,600 -1,484 Descending FlightAware ADS-B
Sun 01:44:44 PM 42.1780 -72.6160 263° West 379 436 16,000 -529 Descending FlightAware ADS-B
Sun 01:44:56 PM 42.1760 -72.6400 264° West 379 436 16,000  Level FlightAware ADS-B
Sun 01:46:38 PM 42.1570 -72.8440 263° West 379 436 16,000  Level FlightAware ADS-B
Sun 01:47:25 PM 42.1490 -72.9370 263° West 379 436 16,000  Level FlightAware ADS-B
Sun 01:52:52 PM 41.7780 -73.5860 233° Southwest 366 421 16,000 -66 Level FlightAware ADS-B
Sun 01:53:28 PM 41.7470 -73.6560 239° Southwest 370 426 15,600 -815 Descending FlightAware ADS-B
Sun 01:54:13 PM 41.7100 -73.7430 240° Southwest 360 414 14,900 -1,071 Descending FlightAware ADS-B
Sun 01:54:52 PM 41.6760 -73.8210 240° Southwest 360 414 14,100 -1,367 Descending FlightAware ADS-B
Sun 01:55:32 PM 41.6360 -73.8920 233° Southwest 356 410 13,100 -1,519 Descending FlightAware ADS-B
Sun 01:56:11 PM 41.5970 -73.9570 231° Southwest 353 406 12,100 -1,379 Descending FlightAware ADS-B
Sun 01:56:59 PM 41.5520 -74.0290 230° Southwest 330 380 11,100 -1,067 Descending FlightAware ADS-B
Sun 01:57:41 PM 41.5160 -74.0870 230° Southwest 308 354 10,500 -1,132 Descending FlightAware ADS-B
Sun 01:57:52 PM 41.4988 -74.1155 231° Southwest 296 341 10,100 -1,154 Descending FlightAware ADS-B
Sun 01:58:33 PM 41.4650 -74.1703 231° Southwest 273 314 9,500 -892 Descending FlightAware ADS-B
Sun 01:59:06 PM 41.4410 -74.2090 230° Southwest 269 310 9,000 -492 Descending FlightAware ADS-B
Sun 01:59:34 PM 41.4220 -74.2390 230° Southwest 269 310 9,000 -1,000 Level FlightAware ADS-B
Sun 01:59:54 PM 41.3977 -74.2710 225° Southwest 272 313 8,200 -1,929 Descending FlightAware ADS-B
Sun 02:00:02 PM 41.3898 -74.2784 215° Southwest 274 315 8,100 -450 Descending FlightAware ADS-B
Sun 02:00:34 PM 41.3550 -74.3076 212° Southwest 273 314 7,900 -710 Descending FlightAware ADS-B
Sun 02:04:24 PM 41.0858 -74.4116 196° South 267 307 5,000 -702 Descending FlightAware ADS-B
Sun 02:04:42 PM 41.0631 -74.4142 185° South 270 311 5,000  Level FlightAware ADS-B
Sun 02:04:47 PM 41.0566 -74.4144 181° South 271 312 5,000  Level FlightAware ADS-B
Sun 02:05:01 PM 41.0389 -74.4091 167° South 277 319 5,000  Level FlightAware ADS-B
Sun 02:05:06 PM 41.0341 -74.4060 154° Southeast 278 320 5,000  Level FlightAware ADS-B
Sun 02:05:11 PM 41.0284 -74.4012 148° Southeast 280 322 5,000  Level FlightAware ADS-B
Sun 02:05:15 PM 41.0241 -74.3965 140° Southeast 282 325 5,000  Level FlightAware ADS-B
Sun 02:05:19 PM 41.0202 -74.3911 134° Southeast 282 325 5,000  Level FlightAware ADS-B
Sun 02:05:35 PM 41.0080 -74.3702 128° Southeast 285 328 5,000 -188 Level FlightAware ADS-B
Sun 02:05:51 PM 40.9955 -74.3472 126° Southeast 285 328 4,900 -581 Descending FlightAware ADS-B
Sun 02:06:06 PM 40.9838 -74.3258 126° Southeast 282 325 4,700 -1,000 Descending FlightAware ADS-B
Sun 02:06:21 PM 40.9721 -74.3045 126° Southeast 279 321 4,400 -1,200 Descending FlightAware ADS-B
Sun 02:06:36 PM 40.9606 -74.2836 126° Southeast 277 319 4,100 -968 Descending FlightAware ADS-B
Sun 02:06:52 PM 40.9490 -74.2626 126° Southeast 277 319 3,900 -387 Descending FlightAware ADS-B
Sun 02:07:07 PM 40.9373 -74.2415 126° Southeast 279 321 3,900 182 Level FlightAware ADS-B
Sun 02:07:25 PM 40.9236 -74.2171 127° Southeast 277 319 4,000 171 Climbing FlightAware ADS-B
Sun 02:07:42 PM 40.9112 -74.1946 126° Southeast 275 316 4,000 -188 Level FlightAware ADS-B
Sun 02:07:57 PM 40.8994 -74.1737 127° Southeast 276 318 3,900 -577 Descending FlightAware ADS-B
Sun 02:08:34 PM 40.8721 -74.1253 127° Southeast 268 308 3,500 -783 Descending FlightAware ADS-B
Sun 02:08:43 PM 40.8652 -74.1133 127° Southeast 260 299 3,300 -857 Descending FlightAware ADS-B
Sun 02:08:48 PM 40.8616 -74.1076 130° Southeast 258 297 3,300 -750 Level FlightAware ADS-B
Sun 02:08:51 PM 40.8585 -74.1037 136° Southeast 259 298 3,200 -2,000 Descending FlightAware ADS-B
Sun 02:08:54 PM 40.8557 -74.1008 142° Southeast 258 297 3,100 -1,500 Descending FlightAware ADS-B
Sun 02:08:59 PM 40.8513 -74.0972 148° Southeast 256 295 3,000 -750 Descending FlightAware ADS-B
Sun 02:09:02 PM 40.8479 -74.0951 155° Southeast 254 292 3,000 -1,091 Level FlightAware ADS-B
Sun 02:09:10 PM 40.8382 -74.0917 165° South 250 288 2,800 -1,333 Descending FlightAware ADS-B
Sun 02:09:20 PM 40.8271 -74.0899 173° South 244 281 2,600 -923 Descending FlightAware ADS-B
Sun 02:09:23 PM 40.8236 -74.0898 179° South 238 274 2,600 -857 Level FlightAware ADS-B
Sun 02:09:27 PM 40.8199 -74.0899 181° South 233 268 2,500 -857 Descending FlightAware ADS-B
Sun 02:09:30 PM 40.8161 -74.0906 188° South 227 261 2,500  Level FlightAware ADS-B
Sun 02:09:34 PM 40.8123 -74.0922 198° South 220 253 2,500 -545 Level FlightAware ADS-B
Sun 02:09:41 PM 40.8056 -74.0956 201° Southwest 212 244 2,400 -889 Descending FlightAware ADS-B
Sun 02:10:01 PM 40.7888 -74.1054 204° Southwest 203 234 2,100 -1,000 Descending FlightAware ADS-B
Sun 02:10:11 PM 40.7802 -74.1107 205° Southwest 198 228 1,900 -960 Descending FlightAware ADS-B
Sun 02:10:26 PM 40.7678 -74.1182 205° Southwest 193 222 1,700 -1,000 Descending FlightAware ADS-B
Sun 02:10:35 PM 40.7608 -74.1227 206° Southwest 184 212 1,500 -1,250 Descending FlightAware ADS-B
Sun 02:10:50 PM 40.7493 -74.1298 205° Southwest 175 201 1,200 -923 Descending FlightAware ADS-B
Sun 02:11:01 PM 40.7416 -74.1346 205° Southwest 167 192 1,100 -692 Descending FlightAware ADS-B
Sun 02:11:16 PM 40.7311 -74.1409 204° Southwest 154 177 900 -882 Descending FlightAware ADS-B
Sun 02:11:35 PM 40.7203 -74.1476 205° Southwest 145 167 600 -947 Descending FlightAware ADS-B

Login

Don't have an account? Register now (free) for customized features, flight alerts, and more!